Time;durP1;ratioP1;P1;durP2;ratioP2;P2;SDS_P1;SDS_P2;PMS_P1;PMS_P2;Temp;Humidity;BMP_temperature;BMP_pressure;BME280_temperature;BME280_humidity;BME280_pressure;Samples;Min_cycle;Max_cycle;Signal;HPM_P1;HPM_P2
2022/11/01 00:00:49;;;;;;;53.37;30.17;;;13.20;99.90;;;;;;4989262;28;20192;-75
2022/11/01 00:03:14;;;;;;;50.60;31.17;;;13.20;99.90;;;;;;4970548;28;20198;-75
2022/11/01 00:05:40;;;;;;;54.03;32.77;;;13.20;99.90;;;;;;4962162;28;20174;-74
2022/11/01 00:08:05;;;;;;;55.60;33.03;;;13.20;99.90;;;;;;4974446;28;20176;-75
2022/11/01 00:10:31;;;;;;;50.27;30.50;;;13.30;99.90;;;;;;4960542;28;20232;-75
2022/11/01 00:12:56;;;;;;;45.97;30.10;;;13.20;99.90;;;;;;4974843;28;20662;-75
2022/11/01 00:15:22;;;;;;;49.03;33.83;;;13.30;99.90;;;;;;4991377;28;20173;-74
2022/11/01 00:17:48;;;;;;;42.13;29.00;;;13.30;99.90;;;;;;4976025;28;20178;-75
2022/11/01 00:20:13;;;;;;;51.97;30.50;;;13.30;99.90;;;;;;4954690;28;20237;-74
2022/11/01 00:22:38;;;;;;;48.13;32.07;;;13.30;99.90;;;;;;4954669;28;20547;-74
2022/11/01 00:25:04;;;;;;;50.23;29.33;;;13.30;99.90;;;;;;4955457;28;20695;-74
2022/11/01 00:27:30;;;;;;;42.33;29.93;;;13.40;99.90;;;;;;4955381;28;20173;-74
2022/11/01 00:29:55;;;;;;;44.27;28.90;;;13.40;99.90;;;;;;4956016;28;20170;-74
2022/11/01 00:32:21;;;;;;;46.70;28.03;;;13.40;99.90;;;;;;4956023;28;20630;-74
2022/11/01 00:34:46;;;;;;;53.03;31.90;;;13.40;99.90;;;;;;4961435;28;20193;-74
2022/11/01 00:37:12;;;;;;;47.33;29.20;;;13.40;99.90;;;;;;4973064;28;20170;-75
2022/11/01 00:39:37;;;;;;;46.17;29.70;;;13.50;99.90;;;;;;4962814;28;20293;-74
2022/11/01 00:42:03;;;;;;;39.27;29.13;;;13.50;99.90;;;;;;4953953;28;20249;-75
2022/11/01 00:44:28;;;;;;;51.30;31.10;;;13.50;99.90;;;;;;4953684;28;20285;-74
2022/11/01 00:46:54;;;;;;;42.47;27.97;;;13.50;99.90;;;;;;4951883;28;20166;-75
2022/11/01 00:49:19;;;;;;;38.17;26.83;;;13.50;99.90;;;;;;4960749;28;20205;-74
2022/11/01 00:51:45;;;;;;;44.73;29.30;;;13.50;99.90;;;;;;4984018;28;20173;-74
2022/11/01 00:54:10;;;;;;;41.07;29.17;;;13.50;99.90;;;;;;4994209;28;20316;-74
2022/11/01 00:56:36;;;;;;;40.60;27.87;;;13.50;99.90;;;;;;4994220;28;20232;-73
2022/11/01 00:59:01;;;;;;;46.13;30.30;;;13.50;99.90;;;;;;4994376;28;20204;-74
2022/11/01 01:01:27;;;;;;;40.87;29.13;;;13.50;99.90;;;;;;4994151;28;20165;-74
2022/11/01 01:03:52;;;;;;;44.33;30.40;;;13.40;99.90;;;;;;4994352;28;20185;-74
2022/11/01 01:06:18;;;;;;;37.17;28.43;;;13.40;99.90;;;;;;4972336;28;20169;-72
2022/11/01 01:08:43;;;;;;;43.03;29.83;;;13.40;99.90;;;;;;4973049;28;20173;-73
2022/11/01 01:11:09;;;;;;;45.27;30.00;;;13.40;99.90;;;;;;4968863;28;20193;-73
2022/11/01 01:13:34;;;;;;;48.23;31.47;;;13.40;99.90;;;;;;4975008;28;20216;-72
2022/11/01 01:16:05;;;;;;;39.60;27.30;;;13.30;99.90;;;;;;4974240;28;20180;-73
2022/11/01 01:18:30;;;;;;;43.97;29.77;;;13.30;99.90;;;;;;4974376;28;20205;-73
2022/11/01 01:21:03;;;;;;;47.27;28.67;;;13.30;99.90;;;;;;4974585;28;20760;-73
2022/11/01 01:23:29;;;;;;;42.37;29.37;;;13.30;99.90;;;;;;4966743;28;20205;-73
2022/11/01 01:25:54;;;;;;;41.20;29.13;;;13.30;99.90;;;;;;4973204;28;20492;-74
2022/11/01 01:28:20;;;;;;;46.03;28.57;;;13.30;99.90;;;;;;4972453;28;20197;-74
2022/11/01 01:30:46;;;;;;;42.50;28.00;;;13.30;99.90;;;;;;4974163;28;20178;-73
2022/11/01 01:33:11;;;;;;;47.27;31.10;;;13.20;99.90;;;;;;4974436;28;20305;-73
2022/11/01 01:35:38;;;;;;;44.00;26.27;;;13.20;99.90;;;;;;4974354;28;20186;-73
2022/11/01 01:38:03;;;;;;;39.73;29.27;;;13.30;99.90;;;;;;4974328;28;20265;-73
2022/11/01 01:40:30;;;;;;;40.77;28.97;;;13.30;99.90;;;;;;4964871;28;20524;-73
2022/11/01 01:42:56;;;;;;;49.77;29.43;;;13.30;99.90;;;;;;4967778;28;20202;-73
2022/11/01 01:45:28;;;;;;;42.57;28.60;;;13.30;99.90;;;;;;4973280;28;20975;-74
2022/11/01 01:47:56;;;;;;;44.60;29.17;;;13.30;99.90;;;;;;4971711;28;20209;-74
2022/11/01 01:50:36;;;;;;;38.50;26.73;;;13.30;99.90;;;;;;4986568;28;20900;-73
2022/11/01 01:53:10;;;;;;;39.17;24.97;;;13.30;99.90;;;;;;4973202;28;20480;-73
2022/11/01 01:55:46;;;;;;;40.23;25.00;;;13.20;99.90;;;;;;4972917;28;20762;-73
2022/11/01 01:58:14;;;;;;;45.33;26.60;;;13.20;99.90;;;;;;4971485;28;20804;-73
2022/11/01 02:00:42;;;;;;;45.13;29.70;;;13.20;99.90;;;;;;4972582;28;20425;-72
2022/11/01 02:03:07;;;;;;;40.33;27.13;;;13.20;99.90;;;;;;4973149;28;20448;-73
2022/11/01 02:06:03;;;;;;;36.73;27.47;;;13.20;99.90;;;;;;4977670;28;20499;-72
2022/11/01 02:08:30;;;;;;;41.23;27.13;;;13.10;99.90;;;;;;4953989;28;20256;-73
2022/11/01 02:10:59;;;;;;;43.10;28.23;;;13.10;99.90;;;;;;4972830;28;20421;-72
2022/11/01 02:13:24;;;;;;;35.53;26.63;;;13.10;99.90;;;;;;4973146;28;20948;-73
2022/11/01 02:16:15;;;;;;;36.30;26.70;;;13.10;99.90;;;;;;4972572;28;20485;-73
2022/11/01 02:18:50;;;;;;;42.83;26.93;;;13.10;99.90;;;;;;4972759;28;20312;-72
2022/11/01 02:21:52;;;;;;;39.90;28.20;;;13.10;99.90;;;;;;4972876;28;20419;-74
2022/11/01 02:24:42;;;;;;;44.03;28.00;;;13.10;99.90;;;;;;4972795;28;20523;-73
2022/11/01 02:27:17;;;;;;;42.23;31.07;;;13.00;99.90;;;;;;4972579;28;20412;-73
2022/11/01 02:30:06;;;;;;;40.87;28.63;;;13.00;99.90;;;;;;4972019;28;20450;-73
2022/11/01 02:33:04;;;;;;;40.93;27.90;;;13.00;99.90;;;;;;4969316;28;20444;-72
2022/11/01 02:35:58;;;;;;;40.53;25.70;;;13.00;99.90;;;;;;4951292;28;20460;-73
2022/11/01 02:38:31;;;;;;;41.40;27.83;;;13.00;99.90;;;;;;4972133;28;20461;-73
2022/11/01 02:41:07;;;;;;;47.00;30.80;;;13.00;99.90;;;;;;4971455;28;20437;-74
2022/11/01 02:43:49;;;;;;;40.87;27.83;;;13.00;99.90;;;;;;4971982;28;20437;-73
2022/11/01 02:49:02;;;;;;;42.27;28.90;;;12.90;99.90;;;;;;4972659;28;20464;-73
2022/11/01 02:51:30;;;;;;;40.53;29.73;;;12.90;99.90;;;;;;4972403;28;20421;-73
2022/11/01 02:54:00;;;;;;;42.83;27.87;;;12.90;99.90;;;;;;4959986;28;20532;-74
2022/11/01 02:56:26;;;;;;;46.73;30.50;;;12.90;99.90;;;;;;4951590;28;20472;-72
2022/11/01 02:58:52;;;;;;;38.90;29.50;;;12.80;99.90;;;;;;4964559;28;20485;-73
2022/11/01 03:01:23;;;;;;;41.77;27.10;;;12.80;99.90;;;;;;4972404;28;20417;-73
2022/11/01 03:03:52;;;;;;;35.77;26.57;;;12.80;99.90;;;;;;4972856;28;20425;-72
2022/11/01 03:06:28;;;;;;;42.23;29.20;;;12.80;99.90;;;;;;4972856;28;20440;-72
2022/11/01 03:08:59;;;;;;;40.60;28.50;;;12.80;99.90;;;;;;4966576;28;20467;-72
2022/11/01 03:11:41;;;;;;;49.17;29.40;;;12.70;99.90;;;;;;4971323;28;20956;-74
2022/11/01 03:14:35;;;;;;;39.90;29.40;;;12.70;99.90;;;;;;4970280;28;20441;-74
2022/11/01 03:17:22;;;;;;;39.47;26.57;;;12.70;99.90;;;;;;4973310;28;20413;-73
2022/11/01 03:20:06;;;;;;;42.47;29.00;;;12.70;99.90;;;;;;4973441;28;20463;-73
2022/11/01 03:22:51;;;;;;;45.00;27.10;;;12.60;99.90;;;;;;4972195;28;21014;-73
2022/11/01 03:25:43;;;;;;;44.83;29.90;;;12.60;99.90;;;;;;4971624;28;20453;-72
2022/11/01 03:28:13;;;;;;;39.87;28.03;;;12.60;99.90;;;;;;4972358;28;20417;-73
2022/11/01 03:30:43;;;;;;;45.73;29.73;;;12.60;99.90;;;;;;4972255;28;20508;-73
2022/11/01 03:33:11;;;;;;;35.20;27.47;;;12.50;99.90;;;;;;4973802;28;20519;-74
2022/11/01 03:35:39;;;;;;;44.73;29.13;;;12.60;99.90;;;;;;4988083;28;20551;-74
2022/11/01 03:38:12;;;;;;;38.83;27.67;;;12.60;99.90;;;;;;4994613;28;20898;-73
2022/11/01 03:40:41;;;;;;;42.57;28.77;;;12.60;99.90;;;;;;4991044;28;20411;-73
2022/11/01 03:43:11;;;;;;;46.13;29.43;;;12.60;99.90;;;;;;4980155;28;20444;-73
2022/11/01 03:45:38;;;;;;;49.87;28.90;;;12.50;99.90;;;;;;4980082;28;20504;-73
2022/11/01 03:48:04;;;;;;;45.20;29.83;;;12.50;99.90;;;;;;4974849;28;20409;-73
2022/11/01 03:50:30;;;;;;;44.47;29.70;;;12.50;99.90;;;;;;4975570;28;20437;-73
2022/11/01 03:52:55;;;;;;;41.37;28.10;;;12.50;99.90;;;;;;4968787;28;20499;-73
2022/11/01 03:55:21;;;;;;;44.90;28.60;;;12.40;99.90;;;;;;4970133;28;20181;-73
2022/11/01 03:57:51;;;;;;;39.60;28.47;;;12.40;99.90;;;;;;4978533;28;20276;-72
2022/11/01 04:00:20;;;;;;;39.70;27.00;;;12.40;99.90;;;;;;4985228;28;20440;-72
2022/11/01 04:02:47;;;;;;;37.47;27.50;;;12.40;99.90;;;;;;4990514;28;20431;-72
2022/11/01 04:05:13;;;;;;;36.13;27.70;;;12.40;99.90;;;;;;4982849;28;20421;-72
2022/11/01 04:07:39;;;;;;;41.40;28.03;;;12.40;99.90;;;;;;4986382;28;20456;-73
2022/11/01 04:10:05;;;;;;;38.53;29.30;;;12.30;99.90;;;;;;4974979;28;20903;-73
2022/11/01 04:12:31;;;;;;;52.00;29.67;;;12.30;99.90;;;;;;4973503;28;20484;-74
2022/11/01 04:20:33;;;;;;;43.40;29.83;;;12.30;99.90;;;;;;4975013;28;20416;-72
2022/11/01 04:22:59;;;;;;;42.73;28.80;;;12.30;99.90;;;;;;4975203;28;20431;-73
2022/11/01 04:25:25;;;;;;;53.73;31.63;;;12.20;99.90;;;;;;4974816;28;20415;-72
2022/11/01 04:27:50;;;;;;;40.23;28.53;;;12.20;99.90;;;;;;4974929;28;20844;-72
2022/11/01 04:30:16;;;;;;;41.93;28.23;;;12.20;99.90;;;;;;4986155;28;20177;-72
2022/11/01 04:32:44;;;;;;;47.03;30.20;;;12.20;99.90;;;;;;4994099;28;20196;-72
2022/11/01 04:35:13;;;;;;;44.33;30.40;;;12.20;99.90;;;;;;4993960;28;20534;-73
2022/11/01 04:37:38;;;;;;;42.17;31.57;;;12.10;99.90;;;;;;4993822;28;20799;-72
2022/11/01 04:40:07;;;;;;;40.00;27.67;;;12.10;99.90;;;;;;4994489;28;20420;-73
2022/11/01 04:42:34;;;;;;;46.10;30.27;;;12.10;99.90;;;;;;4993796;28;20493;-71
2022/11/01 04:44:59;;;;;;;44.53;30.53;;;12.10;99.90;;;;;;4993837;28;20825;-72
2022/11/01 04:47:25;;;;;;;43.30;30.87;;;12.20;99.90;;;;;;4988879;28;20503;-72
2022/11/01 04:49:51;;;;;;;52.73;29.87;;;12.20;99.90;;;;;;4970384;28;20284;-72
2022/11/01 04:52:16;;;;;;;41.87;28.97;;;12.20;99.90;;;;;;4975052;28;20525;-71
2022/11/01 04:54:42;;;;;;;46.53;31.10;;;12.10;99.90;;;;;;4976606;28;20192;-71
2022/11/01 04:57:21;;;;;;;52.93;32.10;;;12.20;99.90;;;;;;4974163;28;20184;-72
2022/11/01 04:59:53;;;;;;;49.83;31.53;;;12.20;99.90;;;;;;4967287;28;20332;-72
2022/11/01 05:02:21;;;;;;;46.63;30.33;;;12.10;99.90;;;;;;4953476;28;20905;-72
2022/11/01 05:04:46;;;;;;;54.43;29.67;;;12.10;99.90;;;;;;4954079;28;20932;-72
2022/11/01 05:07:12;;;;;;;50.97;31.47;;;12.10;99.90;;;;;;4955216;28;20432;-72
2022/11/01 05:09:38;;;;;;;51.43;30.27;;;12.10;99.90;;;;;;4955710;28;20198;-72
2022/11/01 05:12:04;;;;;;;40.73;30.17;;;12.10;99.90;;;;;;4955349;28;20438;-72
2022/11/01 05:14:29;;;;;;;44.87;30.37;;;12.10;99.90;;;;;;4956303;28;20205;-72
2022/11/01 05:16:56;;;;;;;41.37;29.93;;;12.20;99.90;;;;;;4963777;28;20270;-71
2022/11/01 05:19:21;;;;;;;43.23;31.30;;;12.10;99.90;;;;;;4973471;28;20288;-72
2022/11/01 05:21:47;;;;;;;44.30;29.37;;;12.20;99.90;;;;;;4972781;28;20836;-72
2022/11/01 05:24:12;;;;;;;39.47;27.70;;;12.20;99.90;;;;;;4972787;28;20276;-71
2022/11/01 05:26:39;;;;;;;41.27;29.67;;;12.20;99.90;;;;;;4974483;28;20237;-71
2022/11/01 05:29:04;;;;;;;44.60;30.30;;;12.10;99.90;;;;;;4974661;28;20256;-72
2022/11/01 05:31:30;;;;;;;42.23;27.17;;;12.10;99.90;;;;;;4974788;28;20449;-72
2022/11/01 05:33:55;;;;;;;52.00;32.83;;;12.10;99.90;;;;;;4974831;28;20193;-72
2022/11/01 05:36:21;;;;;;;54.73;33.70;;;12.20;99.90;;;;;;4956115;28;20182;-73
2022/11/01 05:38:47;;;;;;;42.70;31.07;;;12.10;99.90;;;;;;4958019;28;20197;-73
2022/11/01 05:41:12;;;;;;;43.17;31.93;;;12.10;99.90;;;;;;4973706;28;20228;-72
2022/11/01 05:43:38;;;;;;;49.87;29.27;;;12.10;99.90;;;;;;4974493;28;20189;-73
2022/11/01 05:46:04;;;;;;;47.63;27.97;;;12.10;99.90;;;;;;4973380;28;20256;-72
2022/11/01 05:48:30;;;;;;;47.93;30.37;;;12.10;99.90;;;;;;4973817;28;20177;-72
2022/11/01 05:50:56;;;;;;;50.60;30.97;;;12.10;99.90;;;;;;4975646;28;20441;-72
2022/11/01 05:53:21;;;;;;;45.43;27.50;;;12.00;99.90;;;;;;4974107;28;20755;-72
2022/11/01 05:55:47;;;;;;;42.27;30.40;;;12.10;99.90;;;;;;4972089;28;20196;-72
2022/11/01 05:58:12;;;;;;;48.90;31.13;;;12.10;99.90;;;;;;4973640;28;20229;-73
2022/11/01 06:00:38;;;;;;;43.73;30.70;;;12.10;99.90;;;;;;4974320;28;20253;-73
2022/11/01 06:03:04;;;;;;;49.90;33.60;;;12.10;99.90;;;;;;4973744;28;20197;-73
2022/11/01 06:05:30;;;;;;;46.27;30.60;;;12.10;99.90;;;;;;5010599;23;20226;-72
2022/11/01 06:07:58;;;;;;;47.67;31.57;;;12.10;99.90;;;;;;4988635;28;20607;-68
2022/11/01 06:10:24;;;;;;;50.30;28.70;;;12.10;99.90;;;;;;4980389;28;20786;-69
2022/11/01 06:12:49;;;;;;;44.53;30.00;;;12.10;99.90;;;;;;4993727;28;20415;-70
2022/11/01 06:15:15;;;;;;;49.50;30.07;;;12.00;99.90;;;;;;4996387;28;20188;-71
2022/11/01 06:17:41;;;;;;;46.80;31.93;;;12.10;99.90;;;;;;5011032;28;20181;-70
2022/11/01 06:20:06;;;;;;;46.80;29.97;;;12.00;99.90;;;;;;5011332;28;20596;-70
2022/11/01 06:22:35;;;;;;;43.07;30.33;;;12.00;99.90;;;;;;5010311;28;20239;-68
2022/11/01 06:25:00;;;;;;;48.03;31.50;;;12.00;99.90;;;;;;4987467;28;20482;-69
2022/11/01 06:27:27;;;;;;;45.47;30.10;;;12.00;99.90;;;;;;4993491;28;20444;-70
2022/11/01 06:29:52;;;;;;;45.33;30.47;;;12.10;99.90;;;;;;4992746;28;20184;-69
2022/11/01 06:32:18;;;;;;;48.73;30.17;;;12.10;99.90;;;;;;5006821;28;20415;-69
2022/11/01 06:34:43;;;;;;;49.60;30.67;;;12.10;99.90;;;;;;5010786;28;20223;-70
2022/11/01 06:37:09;;;;;;;43.40;26.63;;;12.10;99.90;;;;;;5011203;28;20178;-70
2022/11/01 06:39:35;;;;;;;46.07;29.60;;;12.10;99.90;;;;;;5011900;28;20204;-71
2022/11/01 06:42:01;;;;;;;44.57;27.47;;;12.10;99.90;;;;;;5001817;28;20184;-68
2022/11/01 06:44:26;;;;;;;63.67;37.00;;;12.20;99.90;;;;;;5006324;28;20901;-71
2022/11/01 06:46:53;;;;;;;49.33;33.47;;;12.50;99.90;;;;;;4983992;28;20208;-70
2022/11/01 06:49:19;;;;;;;42.63;30.73;;;12.60;99.90;;;;;;4977318;28;20192;-68
2022/11/01 06:51:45;;;;;;;41.00;28.07;;;12.50;99.90;;;;;;4978121;28;20409;-69
2022/11/01 06:54:11;;;;;;;40.10;30.77;;;12.40;99.90;;;;;;4980416;28;20820;-71
2022/11/01 06:56:36;;;;;;;45.83;28.03;;;12.30;99.90;;;;;;5005452;28;20180;-70
2022/11/01 06:59:02;;;;;;;38.93;23.67;;;12.40;99.90;;;;;;4989285;28;20197;-68
2022/11/01 07:01:28;;;;;;;43.87;29.37;;;12.50;99.90;;;;;;4973038;28;20181;-67
2022/11/01 07:03:56;;;;;;;42.33;29.13;;;12.50;99.90;;;;;;4976839;28;21978;-70
2022/11/01 07:06:27;;;;;;;42.73;25.20;;;12.50;99.90;;;;;;4974316;28;20169;-70
2022/11/01 07:08:53;;;;;;;37.73;24.47;;;12.60;99.90;;;;;;4991833;28;20423;-70
2022/11/01 07:11:19;;;;;;;34.33;25.37;;;12.70;99.90;;;;;;5002625;28;20506;-70
2022/11/01 07:13:44;;;;;;;36.60;25.30;;;12.70;99.90;;;;;;5009681;28;20470;-69
2022/11/01 07:16:10;;;;;;;31.83;24.00;;;12.70;99.90;;;;;;5001123;28;20264;-69
2022/11/01 07:18:35;;;;;;;31.93;22.93;;;12.80;99.90;;;;;;4978498;28;20640;-70
2022/11/01 07:21:02;;;;;;;33.70;23.07;;;12.80;99.90;;;;;;5005036;28;21117;-70
2022/11/01 07:23:29;;;;;;;27.43;21.97;;;12.80;99.90;;;;;;5004020;28;20226;-70
2022/11/01 07:25:54;;;;;;;29.70;22.50;;;12.80;99.90;;;;;;5003665;28;20416;-69
2022/11/01 07:28:20;;;;;;;31.20;23.63;;;12.80;99.90;;;;;;4999965;28;20427;-69
2022/11/01 07:30:50;;;;;;;28.20;20.90;;;12.80;99.90;;;;;;5009549;28;20242;-69
2022/11/01 07:33:17;;;;;;;28.60;21.17;;;12.90;99.90;;;;;;5007105;28;20192;-69
2022/11/01 07:35:43;;;;;;;24.30;19.87;;;12.90;99.90;;;;;;5009733;28;20438;-70
2022/11/01 07:38:09;;;;;;;26.40;22.73;;;13.00;99.90;;;;;;5006415;28;20459;-69
2022/11/01 07:40:35;;;;;;;27.77;21.00;;;13.10;99.90;;;;;;5010236;28;20177;-70
2022/11/01 07:43:02;;;;;;;27.53;20.13;;;13.10;99.90;;;;;;5002151;28;20423;-69
2022/11/01 07:45:30;;;;;;;34.93;21.10;;;13.00;99.90;;;;;;4994730;28;20656;-69
2022/11/01 07:48:03;;;;;;;29.30;21.33;;;13.20;99.90;;;;;;4999990;28;20411;-68
2022/11/01 07:50:30;;;;;;;28.37;21.60;;;13.20;99.90;;;;;;5007182;28;20413;-69
2022/11/01 07:53:11;;;;;;;30.70;19.53;;;13.30;99.90;;;;;;4993408;28;20518;-69
2022/11/01 07:55:37;;;;;;;27.10;19.20;;;13.40;99.90;;;;;;4952044;28;20440;-70
2022/11/01 07:58:04;;;;;;;25.90;19.87;;;13.30;99.90;;;;;;4976240;28;20412;-69
2022/11/01 08:00:30;;;;;;;21.03;17.70;;;13.30;99.90;;;;;;4991448;28;20454;-70
2022/11/01 08:03:03;;;;;;;23.67;18.93;;;13.40;99.90;;;;;;4990263;28;20420;-70
2022/11/01 08:05:31;;;;;;;27.43;19.03;;;13.40;99.90;;;;;;4990601;28;20867;-69
2022/11/01 08:07:57;;;;;;;24.20;17.50;;;13.40;99.90;;;;;;4990416;28;20555;-69
2022/11/01 08:10:23;;;;;;;24.57;18.63;;;13.40;99.90;;;;;;4994437;28;20515;-70
2022/11/01 08:12:48;;;;;;;18.63;15.87;;;13.30;99.90;;;;;;4981107;28;20899;-68
2022/11/01 08:15:14;;;;;;;25.00;18.07;;;13.50;99.90;;;;;;4988377;28;20672;-68
2022/11/01 08:17:39;;;;;;;19.80;15.87;;;13.50;99.90;;;;;;4990109;28;20180;-69
2022/11/01 08:20:06;;;;;;;20.77;16.00;;;13.50;99.90;;;;;;4989033;28;20419;-69
2022/11/01 08:22:32;;;;;;;24.43;18.20;;;13.50;99.90;;;;;;4988035;28;20169;-68
2022/11/01 08:24:57;;;;;;;22.03;16.97;;;13.60;99.90;;;;;;4988280;28;20642;-68
2022/11/01 08:27:23;;;;;;;23.13;15.37;;;13.60;99.90;;;;;;4988017;28;20527;-69
2022/11/01 08:29:49;;;;;;;20.10;16.00;;;13.70;99.90;;;;;;4983672;28;20191;-70
2022/11/01 08:32:19;;;;;;;19.43;15.13;;;13.70;99.90;;;;;;5005006;28;20597;-69
2022/11/01 08:34:44;;;;;;;18.90;15.40;;;13.70;99.90;;;;;;4999058;28;20307;-68
2022/11/01 08:37:10;;;;;;;20.00;14.43;;;13.70;99.90;;;;;;5012584;28;20447;-68
2022/11/01 08:39:36;;;;;;;19.80;16.47;;;13.80;99.90;;;;;;4978294;28;20682;-69
2022/11/01 08:42:04;;;;;;;16.50;14.80;;;13.90;99.90;;;;;;4998680;28;20280;-69
2022/11/01 08:44:30;;;;;;;20.77;14.93;;;14.10;99.90;;;;;;4988501;28;20775;-68
2022/11/01 08:46:59;;;;;;;23.03;15.63;;;14.10;99.90;;;;;;4984617;28;20465;-68
2022/11/01 08:49:25;;;;;;;19.10;15.40;;;14.20;99.90;;;;;;4973780;28;20456;-69
2022/11/01 08:51:50;;;;;;;22.27;14.43;;;14.40;99.90;;;;;;4989527;28;20425;-68
2022/11/01 08:54:16;;;;;;;18.50;13.80;;;14.50;99.90;;;;;;4988037;28;20189;-69
2022/11/01 08:56:42;;;;;;;19.40;13.97;;;14.40;99.90;;;;;;5003055;28;20492;-69
2022/11/01 08:59:07;;;;;;;13.83;12.07;;;14.50;99.90;;;;;;5011745;28;20197;-75
2022/11/01 09:01:33;;;;;;;21.17;14.30;;;14.80;99.90;;;;;;5011940;28;20193;-72
2022/11/01 09:04:00;;;;;;;16.70;12.67;;;14.80;99.90;;;;;;5011887;28;20744;-69
2022/11/01 09:06:27;;;;;;;18.13;13.50;;;14.80;99.90;;;;;;5003580;28;20178;-69
2022/11/01 09:08:53;;;;;;;15.00;13.40;;;14.90;99.90;;;;;;4994072;28;20409;-68
2022/11/01 09:11:20;;;;;;;20.13;12.10;;;15.00;99.90;;;;;;5011900;28;20407;-69
2022/11/01 09:13:45;;;;;;;15.80;12.70;;;15.00;99.90;;;;;;5001079;28;20418;-69
2022/11/01 09:16:11;;;;;;;13.40;12.10;;;15.20;99.90;;;;;;5011420;28;20737;-68
2022/11/01 09:18:36;;;;;;;17.30;12.23;;;15.20;99.90;;;;;;5011246;28;20254;-69
2022/11/01 09:21:02;;;;;;;15.63;10.83;;;15.30;99.90;;;;;;5007277;28;20186;-69
2022/11/01 09:23:28;;;;;;;14.40;11.40;;;15.40;99.90;;;;;;5001207;28;20178;-69
2022/11/01 09:26:04;;;;;;;16.30;12.47;;;15.50;99.90;;;;;;4993728;28;20445;-69
2022/11/01 09:28:31;;;;;;;14.00;9.90;;;15.50;99.90;;;;;;5011831;28;20618;-69
2022/11/01 09:30:59;;;;;;;12.17;10.83;;;15.70;99.90;;;;;;5011669;28;20483;-69
2022/11/01 09:33:25;;;;;;;13.73;10.90;;;15.80;99.90;;;;;;5011430;28;20434;-70
2022/11/01 09:35:51;;;;;;;13.17;10.50;;;15.70;99.90;;;;;;4998323;28;20916;-70
2022/11/01 09:38:17;;;;;;;20.40;10.80;;;15.70;99.90;;;;;;4991236;28;20200;-69
2022/11/01 09:40:45;;;;;;;13.70;9.77;;;15.70;99.90;;;;;;5006780;28;20512;-69
2022/11/01 09:43:18;;;;;;;15.20;10.60;;;15.80;99.90;;;;;;5010449;28;20164;-68
2022/11/01 09:45:43;;;;;;;14.20;9.90;;;16.00;99.90;;;;;;5010922;28;20426;-69
2022/11/01 09:48:11;;;;;;;10.60;9.50;;;15.90;99.90;;;;;;5008922;28;20903;-71
2022/11/01 09:50:38;;;;;;;16.30;10.93;;;16.00;99.90;;;;;;4982951;28;20185;-69
2022/11/01 09:53:13;;;;;;;12.30;10.43;;;16.10;99.90;;;;;;5011212;28;20425;-69
2022/11/01 09:56:09;;;;;;;11.53;10.10;;;16.10;99.90;;;;;;5005087;28;20995;-70
2022/11/01 09:58:57;;;;;;;14.77;9.90;;;16.20;99.90;;;;;;5008069;28;20519;-70
2022/11/01 10:01:40;;;;;;;14.93;10.33;;;16.30;99.90;;;;;;4971696;28;20487;-70
2022/11/01 10:04:32;;;;;;;15.13;8.87;;;16.30;99.90;;;;;;4971437;28;20800;-69
2022/11/01 10:07:16;;;;;;;10.10;8.57;;;16.30;99.90;;;;;;4984832;28;20421;-68
2022/11/01 10:10:16;;;;;;;12.30;9.53;;;16.50;99.90;;;;;;4992122;28;20419;-69
2022/11/01 10:13:08;;;;;;;11.70;9.40;;;16.50;99.90;;;;;;4992097;28;20523;-69
2022/11/01 10:15:51;;;;;;;13.70;9.53;;;16.50;99.90;;;;;;4995789;28;20463;-69
2022/11/01 10:18:28;;;;;;;14.27;9.93;;;16.40;99.90;;;;;;4991358;28;20450;-68
2022/11/01 10:21:01;;;;;;;12.53;9.67;;;16.50;99.90;;;;;;4991362;28;20874;-69
2022/11/01 10:23:47;;;;;;;11.03;8.70;;;16.50;99.90;;;;;;4972640;28;20461;-69
2022/11/01 10:26:18;;;;;;;14.40;9.53;;;16.50;99.90;;;;;;4987398;28;20398;-69
2022/11/01 10:28:52;;;;;;;9.97;8.67;;;16.40;99.90;;;;;;4989192;28;20416;-69
2022/11/01 10:31:23;;;;;;;9.73;8.67;;;16.40;99.90;;;;;;4980616;28;20400;-69
2022/11/01 10:34:23;;;;;;;12.20;9.63;;;16.60;99.90;;;;;;4980370;28;20444;-69
2022/11/01 10:36:50;;;;;;;10.80;9.00;;;16.60;99.90;;;;;;4970534;28;20877;-69
2022/11/01 10:39:34;;;;;;;14.37;8.53;;;16.40;99.90;;;;;;4971327;28;20779;-70
2022/11/01 10:42:08;;;;;;;15.63;10.17;;;16.50;99.90;;;;;;4971834;28;20503;-69
2022/11/01 10:44:54;;;;;;;11.70;9.17;;;16.40;99.90;;;;;;4970275;28;20527;-70
2022/11/01 10:47:21;;;;;;;14.43;9.50;;;16.40;99.90;;;;;;4979651;28;20496;-68
2022/11/01 10:50:13;;;;;;;8.90;8.00;;;16.60;99.90;;;;;;4979354;28;20456;-68
2022/11/01 10:53:06;;;;;;;12.10;9.67;;;16.70;99.90;;;;;;4973348;28;20417;-69
2022/11/01 10:55:41;;;;;;;12.03;9.10;;;16.60;99.90;;;;;;4976075;28;20478;-67
2022/11/01 10:58:36;;;;;;;12.57;8.83;;;16.60;99.90;;;;;;4975608;28;20402;-69
2022/11/01 11:01:04;;;;;;;12.57;9.40;;;16.40;99.90;;;;;;4976799;28;20545;-69
2022/11/01 11:03:30;;;;;;;12.43;8.17;;;16.40;99.90;;;;;;4978404;28;20415;-70
2022/11/01 11:05:59;;;;;;;12.63;9.10;;;16.40;99.90;;;;;;4985296;28;20879;-70
2022/11/01 11:08:25;;;;;;;8.67;7.77;;;16.50;99.90;;;;;;4985893;28;20423;-70
2022/11/01 11:10:51;;;;;;;12.50;7.23;;;16.60;99.90;;;;;;4974774;28;20420;-70
2022/11/01 11:13:22;;;;;;;10.23;7.80;;;16.70;99.90;;;;;;4985137;28;20412;-70
2022/11/01 11:15:52;;;;;;;10.57;8.20;;;16.90;99.90;;;;;;4988498;28;20205;-70
2022/11/01 11:18:29;;;;;;;12.73;7.90;;;16.90;99.90;;;;;;4979832;28;20452;-65
2022/11/01 11:21:00;;;;;;;9.03;7.63;;;17.10;99.90;;;;;;4976038;28;20417;-68
2022/11/01 11:23:28;;;;;;;10.47;7.33;;;17.20;99.90;;;;;;4977481;28;20860;-69
2022/11/01 11:26:07;;;;;;;10.13;7.77;;;17.50;99.90;;;;;;4993666;28;20958;-69
2022/11/01 11:28:41;;;;;;;7.57;6.43;;;17.40;99.90;;;;;;5009492;28;20465;-69
2022/11/01 11:31:25;;;;;;;9.90;7.13;;;17.60;99.90;;;;;;4995662;28;20409;-67
2022/11/01 11:33:55;;;;;;;9.13;7.10;;;17.70;99.90;;;;;;4992548;28;21048;-70
2022/11/01 11:36:31;;;;;;;11.23;7.30;;;17.80;99.90;;;;;;5000477;28;20746;-68
2022/11/01 11:38:57;;;;;;;6.43;5.77;;;18.00;99.90;;;;;;5002758;28;20800;-71
2022/11/01 11:41:30;;;;;;;6.57;5.90;;;17.80;99.90;;;;;;5009488;28;20408;-72
2022/11/01 11:43:56;;;;;;;9.10;6.13;;;17.90;99.90;;;;;;4985537;28;20805;-71
2022/11/01 11:46:24;;;;;;;8.73;5.60;;;17.90;99.90;;;;;;4978671;28;20417;-72
2022/11/01 11:48:52;;;;;;;6.40;5.40;;;17.80;99.90;;;;;;4998426;28;20415;-72
2022/11/01 11:51:19;;;;;;;6.37;5.67;;;17.60;99.90;;;;;;5005581;28;20517;-71
2022/11/01 11:54:10;;;;;;;8.73;5.90;;;17.80;99.90;;;;;;5009479;28;20407;-71
2022/11/01 11:56:35;;;;;;;10.03;5.90;;;17.60;99.90;;;;;;4990215;28;20499;-71
2022/11/01 11:59:06;;;;;;;6.50;5.40;;;17.60;99.90;;;;;;5009497;28;20543;-71
2022/11/01 12:01:33;;;;;;;8.13;5.40;;;17.60;99.90;;;;;;5009464;28;20169;-71
2022/11/01 12:04:12;;;;;;;10.33;5.97;;;17.60;99.90;;;;;;5023887;23;20459;-69
2022/11/01 12:06:43;;;;;;;7.70;4.50;;;17.60;99.90;;;;;;5004128;28;20410;-69
2022/11/01 12:09:31;;;;;;;10.57;4.73;;;17.60;99.90;;;;;;5010990;28;20469;-70
2022/11/01 12:12:05;;;;;;;7.97;4.53;;;17.40;99.90;;;;;;5014726;28;20407;-69
2022/11/01 12:14:35;;;;;;;8.87;4.83;;;17.50;99.90;;;;;;5014815;28;20498;-69
2022/11/01 12:17:01;;;;;;;5.07;4.60;;;17.40;99.90;;;;;;5014822;28;20784;-69
2022/11/01 12:19:30;;;;;;;7.03;4.90;;;17.40;99.90;;;;;;5008200;28;20495;-69
2022/11/01 12:22:03;;;;;;;8.73;4.93;;;17.30;99.90;;;;;;5013329;28;20418;-69
2022/11/01 12:24:49;;;;;;;7.77;4.50;;;17.30;99.90;;;;;;5014640;28;20432;-69
2022/11/01 12:27:19;;;;;;;5.97;4.13;;;17.30;99.90;;;;;;5014801;28;20446;-69
2022/11/01 12:29:51;;;;;;;8.80;5.13;;;17.30;99.90;;;;;;5015074;28;20409;-69
2022/11/01 12:32:22;;;;;;;7.17;4.40;;;17.20;99.90;;;;;;5014965;28;20710;-69
2022/11/01 12:34:49;;;;;;;6.80;4.70;;;17.20;99.90;;;;;;5014906;28;20826;-68
2022/11/01 12:37:48;;;;;;;6.60;5.77;;;17.10;99.90;;;;;;5008585;28;20442;-70
2022/11/01 12:40:25;;;;;;;6.03;4.80;;;17.10;99.90;;;;;;5024373;28;20516;-73
2022/11/01 12:42:58;;;;;;;6.13;5.00;;;17.30;99.90;;;;;;5025172;28;20427;-69
2022/11/01 12:45:29;;;;;;;4.80;4.40;;;17.40;99.90;;;;;;5016563;28;20508;-67
2022/11/01 12:48:01;;;;;;;5.80;4.90;;;17.40;99.90;;;;;;5016773;28;20414;-69
2022/11/01 12:50:46;;;;;;;9.60;5.07;;;17.40;99.90;;;;;;5016302;28;20932;-69
2022/11/01 12:53:19;;;;;;;6.47;5.67;;;17.30;99.90;;;;;;5014477;28;20415;-69